createdAt,value
2022-08-05T00:01:28.124Z,100575.22
2022-08-05T00:06:33.357Z,100559.72
2022-08-05T00:11:48.315Z,100552.84
2022-08-05T00:16:53.678Z,100554.66
2022-08-05T00:21:55.702Z,100538.91
2022-08-05T00:26:58.593Z,100541.69
2022-08-05T00:32:12.142Z,100554.19
2022-08-05T00:37:15.373Z,100550.09
2022-08-05T00:42:35.278Z,100536.31
2022-08-05T00:47:56.601Z,100560.69
2022-08-05T00:52:59.004Z,100595.75
2022-08-05T00:58:01.762Z,100573.66
2022-08-05T01:03:07.936Z,100601.78
2022-08-05T01:08:30.789Z,100595.84
2022-08-05T01:14:08.944Z,100604.63
2022-08-05T01:19:36.599Z,100602.41
2022-08-05T01:24:59.820Z,100600.59
2022-08-05T01:30:05.301Z,100621.22
2022-08-05T01:35:51.722Z,100589.03
2022-08-05T01:40:53.156Z,100601.69
2022-08-05T01:45:57.703Z,100608.75
2022-08-05T01:51:12.185Z,100574.53
2022-08-05T01:58:11.544Z,100611.72
2022-08-05T02:01:40.910Z,100594.84
2022-08-05T02:06:45.027Z,100576.25
2022-08-05T02:12:10.023Z,100599.31
2022-08-05T02:18:14.625Z,100578.31
2022-08-05T02:23:03.022Z,100573.59
2022-08-05T02:28:09.154Z,100577.09
2022-08-05T02:33:24.164Z,100589.81
2022-08-05T02:38:35.100Z,100595.06
2022-08-05T02:44:06.229Z,100577.38
2022-08-05T02:49:05.993Z,100580.97
2022-08-05T02:54:34.801Z,100605.78
2022-08-05T02:59:48.092Z,100586.47
2022-08-05T03:04:57.381Z,100582.63
2022-08-05T03:09:59.329Z,100567.88
2022-08-05T03:15:02.323Z,100567.59
2022-08-05T03:20:10.329Z,100570.44
2022-08-05T03:25:33.643Z,100563.59
2022-08-05T03:30:36.709Z,100542.63
2022-08-05T03:35:41.121Z,100543.59
2022-08-05T03:40:47.297Z,100551.41
2022-08-05T03:45:57.188Z,100572.72
2022-08-05T03:52:37.938Z,100578.84
2022-08-05T03:56:47.631Z,100579.91
2022-08-05T04:01:58.900Z,100571.31
2022-08-05T04:07:03.131Z,100581.88
2022-08-05T04:12:24.600Z,100573.75
2022-08-05T04:17:36.524Z,100600.94
2022-08-05T04:22:50.348Z,100596.53
2022-08-05T04:27:58.187Z,100588.59
2022-08-05T04:33:01.499Z,100592.97
2022-08-05T04:38:06.596Z,100602.28
2022-08-05T04:43:10.969Z,100582.78
2022-08-05T04:48:27.968Z,100595.88
2022-08-05T04:53:33.957Z,100584.47
2022-08-05T04:58:37.497Z,100574.63
2022-08-05T05:03:41.822Z,100599.75
2022-08-05T05:08:44.170Z,100582.94
2022-08-05T05:13:51.774Z,100608.91
2022-08-05T05:19:17.695Z,100614.66
2022-08-05T05:24:21.614Z,100643.91
2022-08-05T05:29:23.339Z,100672.16
2022-08-05T05:34:26.896Z,100675.06
2022-08-05T05:39:34.523Z,100678.59
2022-08-05T05:44:45.899Z,100673.41
2022-08-05T05:49:47.832Z,100681.22
2022-08-05T05:55:13.263Z,100711.22
2022-08-05T06:00:20.356Z,100741.16
2022-08-05T06:05:22.107Z,100733.59
2022-08-05T06:10:24.285Z,100749.56
2022-08-05T06:16:27.474Z,100758.84
2022-08-05T06:20:54.192Z,100768.91
2022-08-05T06:26:12.684Z,100776.09
2022-08-05T06:31:21.738Z,100755.91
2022-08-05T06:36:25.977Z,100756.31
2022-08-05T06:41:27.896Z,100744.19
2022-08-05T06:46:30.621Z,100750.03
2022-08-05T06:51:32.641Z,100749.97
2022-08-05T06:56:35.156Z,100740.06
2022-08-05T07:01:37.134Z,100740.88
2022-08-05T07:06:42.622Z,100753.06
2022-08-05T07:11:49.428Z,100763.56
2022-08-05T07:18:00.161Z,100775.41
2022-08-05T07:22:28.559Z,100811.72
2022-08-05T07:27:58.469Z,100809.44
2022-08-05T07:32:54.329Z,100797.13
2022-08-05T07:37:56.077Z,100783.16
2022-08-05T07:42:58.013Z,100773.19
2022-08-05T07:48:00.643Z,100792.34
2022-08-05T07:53:03.827Z,100788.50
2022-08-05T07:58:06.349Z,100763.34
2022-08-05T08:03:15.998Z,100789.09
2022-08-05T08:08:19.823Z,100790.81
2022-08-05T08:13:29.019Z,100759.25
2022-08-05T08:18:31.221Z,100761.59
2022-08-05T08:24:02.013Z,100734.75
2022-08-05T08:28:55.284Z,100766.06
2022-08-05T08:34:01.626Z,100783.63
2022-08-05T08:39:03.825Z,100813.84
2022-08-05T08:45:24.310Z,100797.75
2022-08-05T08:50:14.250Z,100806.19
2022-08-05T08:54:58.489Z,100835.84
2022-08-05T09:00:05.150Z,100834.63
2022-08-05T09:05:17.362Z,100857.00
2022-08-05T09:10:21.802Z,100865.41
2022-08-05T09:15:30.417Z,100862.38
2022-08-05T09:20:37.314Z,100861.00
2022-08-05T09:26:03.325Z,100859.66
2022-08-05T09:32:35.984Z,100853.22
2022-08-05T09:36:55.988Z,100851.47
2022-08-05T09:42:04.668Z,100853.44
2022-08-05T09:47:17.352Z,100836.56
2022-08-05T09:52:35.790Z,100797.47
2022-08-05T09:57:47.040Z,100809.38
2022-08-05T10:02:54.617Z,100778.03
2022-08-05T10:08:35.538Z,100823.19
2022-08-05T10:13:45.817Z,100795.72
2022-08-05T10:18:51.490Z,100845.22
2022-08-05T10:23:59.706Z,100837.03
2022-08-05T10:29:02.723Z,100869.00
2022-08-05T10:34:06.991Z,100893.69
2022-08-05T10:39:58.942Z,100885.13
2022-08-05T10:44:56.070Z,100882.44
2022-08-05T10:50:31.722Z,100863.19
2022-08-05T10:56:03.448Z,100873.91
2022-08-05T11:01:02.964Z,100846.25
2022-08-05T11:06:16.184Z,100840.47
2022-08-05T11:11:44.246Z,100857.56
2022-08-05T11:17:59.038Z,100847.56
2022-08-05T11:22:54.105Z,100844.25
2022-08-05T11:28:11.743Z,100845.66
2022-08-05T11:33:46.119Z,100851.22
2022-08-05T11:38:51.257Z,100855.75
2022-08-05T11:44:40.298Z,100844.56
2022-08-05T11:49:38.223Z,100842.16
2022-08-05T11:54:41.226Z,100861.06
2022-08-05T11:59:50.162Z,100852.72
2022-08-05T12:04:59.638Z,100848.44
2022-08-05T12:10:09.258Z,100848.00
2022-08-05T12:15:37.864Z,100848.16
2022-08-05T12:20:40.600Z,100842.66
2022-08-05T12:25:52.475Z,100849.88
2022-08-05T12:30:57.627Z,100847.91
2022-08-05T12:36:08.196Z,100829.50
2022-08-05T12:41:14.821Z,100844.41
2022-08-05T12:46:31.639Z,100842.31
2022-08-05T12:52:13.745Z,100851.47
2022-08-05T12:57:22.722Z,100846.28
2022-08-05T13:02:30.272Z,100853.22
2022-08-05T13:07:57.504Z,100851.09
2022-08-05T13:12:58.233Z,100850.34
2022-08-05T13:18:00.341Z,100860.16
2022-08-05T13:23:07.123Z,100860.97
2022-08-05T13:28:10.559Z,100851.19
2022-08-05T13:33:14.239Z,100866.75
2022-08-05T13:38:36.270Z,100856.97
2022-08-05T13:43:45.858Z,100861.75
2022-08-05T13:48:58.519Z,100862.00
2022-08-05T13:54:02.285Z,100860.06
2022-08-05T13:59:06.209Z,100845.09
2022-08-05T14:04:41.112Z,100827.88
2022-08-05T14:09:46.502Z,100844.28
2022-08-05T14:14:48.738Z,100856.81
2022-08-05T14:20:00.842Z,100867.16
2022-08-05T14:25:06.149Z,100881.19
2022-08-05T14:30:21.677Z,100883.50
2022-08-05T14:35:23.744Z,100887.28
2022-08-05T14:40:39.343Z,100896.66
2022-08-05T14:45:41.179Z,100885.75
2022-08-05T14:50:43.061Z,100900.97
2022-08-05T14:55:47.293Z,100893.56
2022-08-05T15:00:58.187Z,100888.69
2022-08-05T15:06:08.331Z,100900.44
2022-08-05T15:11:17.074Z,100901.69
2022-08-05T15:16:18.820Z,100911.09
2022-08-05T15:21:21.298Z,100894.06
2022-08-05T15:26:31.940Z,100931.56
2022-08-05T15:31:34.804Z,100924.91
2022-08-05T15:36:36.837Z,100923.56
2022-08-05T15:41:55.712Z,100918.47
2022-08-05T15:47:01.721Z,100919.75
2022-08-05T15:52:14.220Z,100933.25
2022-08-05T15:57:19.727Z,100949.03
2022-08-05T16:02:25.178Z,100950.38
2022-08-05T16:07:29.576Z,100977.28
2022-08-05T16:12:31.554Z,100963.38
2022-08-05T16:17:33.695Z,100969.84
2022-08-05T16:22:35.703Z,100980.44
2022-08-05T16:28:00.715Z,100972.81
2022-08-05T16:33:02.739Z,101002.09
2022-08-05T16:38:24.700Z,101009.72
2022-08-05T16:43:34.553Z,101033.34
2022-08-05T16:48:38.374Z,101058.56
2022-08-05T16:54:05.770Z,101067.25
2022-08-05T16:59:09.213Z,101056.78
2022-08-05T17:04:10.965Z,101050.28
2022-08-05T17:09:16.884Z,101065.38
2022-08-05T17:14:22.125Z,101090.03
2022-08-05T17:19:36.444Z,101099.75
2022-08-05T17:24:40.946Z,101129.44
2022-08-05T17:29:50.173Z,101166.00
2022-08-05T17:35:02.115Z,101149.31
2022-08-05T17:40:10.155Z,101144.38
2022-08-05T17:45:18.198Z,101155.13
2022-08-05T17:50:30.423Z,101162.44
2022-08-05T17:55:37.235Z,101180.34
2022-08-05T18:00:47.640Z,101195.34
2022-08-05T18:05:53.408Z,101190.03
2022-08-05T18:10:56.028Z,101206.00
2022-08-05T18:15:59.376Z,101206.84
2022-08-05T18:21:01.673Z,101220.94
2022-08-05T18:26:03.516Z,101232.50
2022-08-05T18:31:07.238Z,101237.00
2022-08-05T18:36:15.303Z,101247.72
2022-08-05T18:41:53.710Z,101239.13
2022-08-05T18:46:40.997Z,101252.19
2022-08-05T18:52:06.810Z,101249.84
2022-08-05T18:57:15.448Z,101255.22
2022-08-05T19:02:38.073Z,101260.75
2022-08-05T19:07:45.084Z,101279.28
2022-08-05T19:12:48.784Z,101287.25
2022-08-05T19:18:08.719Z,101294.25
2022-08-05T19:24:03.339Z,101308.34
2022-08-05T19:28:34.612Z,101312.81
2022-08-05T19:33:38.059Z,101311.88
2022-08-05T19:38:43.805Z,101334.00
2022-08-05T19:44:05.674Z,101336.50
2022-08-05T19:49:08.555Z,101335.47
2022-08-05T19:54:21.781Z,101339.91
2022-08-05T19:59:55.915Z,101343.41
2022-08-05T20:04:55.570Z,101337.25
2022-08-05T20:10:00.960Z,101348.75
2022-08-05T20:15:02.679Z,101369.09
2022-08-05T20:20:10.916Z,101351.59
2022-08-05T20:25:12.701Z,101371.84
2022-08-05T20:30:14.559Z,101377.13
2022-08-05T20:35:20.061Z,101385.09
2022-08-05T20:40:21.980Z,101408.06
2022-08-05T20:45:23.800Z,101409.91
2022-08-05T20:50:46.933Z,101444.25
2022-08-05T20:55:56.130Z,101442.53
2022-08-05T21:01:10.537Z,101438.13
2022-08-05T21:06:27.772Z,101450.50
2022-08-05T21:12:10.654Z,101466.38
2022-08-05T21:16:52.276Z,101457.59
2022-08-05T21:21:54.214Z,101472.59
2022-08-05T21:26:58.752Z,101477.91
2022-08-05T21:32:04.549Z,101472.63
2022-08-05T21:37:08.160Z,101471.75
2022-08-05T21:42:19.769Z,101483.22
2022-08-05T21:47:56.501Z,101482.31
2022-08-05T21:52:58.864Z,101488.50
2022-08-05T21:58:01.550Z,101489.41
2022-08-05T22:03:05.340Z,101494.69
2022-08-05T22:08:07.080Z,101499.94
2022-08-05T22:14:06.091Z,101492.00
2022-08-05T22:18:49.153Z,101488.50
2022-08-05T22:24:13.191Z,101490.25
2022-08-05T22:29:33.102Z,101518.41
2022-08-05T22:34:35.145Z,101516.69
2022-08-05T22:39:38.030Z,101532.50
2022-08-05T22:44:42.751Z,101536.03
2022-08-05T22:50:20.635Z,101532.47
2022-08-05T22:55:19.366Z,101544.78
2022-08-05T23:00:24.074Z,101541.22
2022-08-05T23:05:28.277Z,101540.38
2022-08-05T23:10:32.694Z,101560.56
2022-08-05T23:15:36.344Z,101548.13
2022-08-05T23:20:38.325Z,101542.78
2022-08-05T23:25:52.394Z,101558.63
2022-08-05T23:31:02.246Z,101551.47
2022-08-05T23:36:18.510Z,101555.81
2022-08-05T23:41:21.052Z,101553.16
2022-08-05T23:46:23.532Z,101579.41
2022-08-05T23:51:25.302Z,101580.31
2022-08-05T23:56:27.937Z,101567.06
